Time;durP1;ratioP1;P1;durP2;ratioP2;P2;SDS_P1;SDS_P2;PMS_P1;PMS_P2;Temp;Humidity;BMP_temperature;BMP_pressure;BME280_temperature;BME280_humidity;BME280_pressure;Samples;Min_cycle;Max_cycle;Signal;HPM_P1;HPM_P2
2021/07/15 00:00:58;;;;;;;;;16.00;15.50;;;;;21.34;58.16;101163.84;5059073;28;45361;-48
2021/07/15 00:03:29;;;;;;;;;12.25;11.50;;;;;21.31;57.78;101164.03;5060060;28;45347;-50
2021/07/15 00:05:55;;;;;;;;;15.25;14.50;;;;;21.27;57.88;101159.78;5081537;27;46173;-48
2021/07/15 00:08:24;;;;;;;;;11.50;11.50;;;;;21.25;58.27;101167.97;5063263;28;47400;-48
2021/07/15 00:10:57;;;;;;;;;13.75;13.75;;;;;21.20;57.73;101164.63;5061843;27;45584;-49
2021/07/15 00:13:23;;;;;;;;;18.00;15.75;;;;;21.16;57.97;101168.47;5080038;27;45442;-50
2021/07/15 00:15:52;;;;;;;;;15.75;14.50;;;;;21.12;58.24;101165.09;5080613;27;45310;-47
2021/07/15 00:18:40;;;;;;;;;16.75;14.25;;;;;21.10;58.02;101164.31;5076699;27;47039;-50
2021/07/15 00:21:11;;;;;;;;;12.00;12.00;;;;;21.10;58.65;101171.53;5081168;27;45301;-48
2021/07/15 00:23:38;;;;;;;;;10.00;10.00;;;;;21.07;58.51;101167.16;5080426;27;45378;-48
2021/07/15 00:26:04;;;;;;;;;10.67;10.67;;;;;21.06;58.52;101169.97;5080621;27;45505;-51
2021/07/15 00:28:31;;;;;;;;;10.67;10.67;;;;;21.05;58.27;101169.09;5061881;28;46049;-51
2021/07/15 00:30:57;;;;;;;;;10.00;9.00;;;;;21.04;58.54;101172.75;5079450;27;45389;-51
2021/07/15 00:33:23;;;;;;;;;10.00;10.00;;;;;21.05;58.78;101185.28;5080066;27;45527;-51
2021/07/15 00:35:49;;;;;;;;;10.67;10.00;;;;;21.06;58.17;101178.06;5061581;27;45511;-52
2021/07/15 00:38:14;;;;;;;;;12.00;10.67;;;;;21.07;58.73;101187.88;5077777;28;46217;-51
2021/07/15 00:40:40;;;;;;;;;10.67;10.67;;;;;21.09;58.63;101175.19;5080084;27;45294;-48
2021/07/15 00:43:07;;;;;;;;;11.00;8.67;;;;;21.10;58.89;101179.63;5090395;27;45523;-52
2021/07/15 00:45:33;;;;;;;;;10.67;10.33;;;;;21.10;58.76;101183.22;5087564;27;45335;-50
2021/07/15 00:47:59;;;;;;;;;12.25;12.00;;;;;21.12;58.75;101178.59;5077542;27;46212;-50
2021/07/15 00:50:25;;;;;;;;;14.33;11.00;;;;;21.13;58.28;101180.31;5044740;27;45512;-50
2021/07/15 00:52:52;;;;;;;;;11.67;10.67;;;;;21.14;58.30;101189.28;5079655;27;45439;-49
2021/07/15 00:55:24;;;;;;;;;13.00;13.00;;;;;21.11;58.89;101179.53;5079653;27;45608;-48
2021/07/15 00:57:50;;;;;;;;;12.33;11.67;;;;;21.11;58.99;101175.97;5079292;27;46451;-51
2021/07/15 01:00:16;;;;;;;;;12.50;11.75;;;;;21.07;58.28;101180.66;5079707;27;45385;-51
2021/07/15 01:02:42;;;;;;;;;16.00;15.25;;;;;21.06;58.49;101180.75;5072101;27;45535;-48
2021/07/15 01:05:11;;;;;;;;;12.75;12.75;;;;;21.04;58.45;101191.63;5079382;27;45979;-49
2021/07/15 01:07:37;;;;;;;;;13.00;13.00;;;;;21.02;58.54;101177.38;5079626;27;47961;-48
2021/07/15 01:10:05;;;;;;;;;17.50;15.50;;;;;21.02;58.95;101187.28;5079151;27;45433;-47
2021/07/15 01:12:34;;;;;;;;;12.33;12.33;;;;;21.02;58.61;101187.28;5079710;27;45369;-47
2021/07/15 01:15:12;;;;;;;;;14.00;14.00;;;;;20.99;59.19;101177.56;5079222;27;45320;-48
2021/07/15 01:17:52;;;;;;;;;11.33;11.33;;;;;20.98;59.14;101183.91;5078850;27;48399;-46
2021/07/15 01:20:29;;;;;;;;;12.00;12.00;;;;;20.97;58.61;101187.56;5079028;27;45443;-51
2021/07/15 01:23:19;;;;;;;;;16.67;13.00;;;;;20.95;59.38;101189.47;5061248;27;45443;-48
2021/07/15 01:26:02;;;;;;;;;10.75;10.00;;;;;20.92;59.37;101195.03;5079414;28;45380;-51
2021/07/15 01:29:13;;;;;;;;;15.00;15.00;;;;;20.88;58.87;101182.69;5078839;27;46975;-50
2021/07/15 01:31:42;;;;;;;;;11.33;11.33;;;;;20.88;58.89;101187.22;5077895;27;45315;-50
2021/07/15 01:34:14;;;;;;;;;12.33;11.00;;;;;20.86;59.20;101181.91;5078737;27;45812;-50
2021/07/15 01:36:45;;;;;;;;;10.00;10.00;;;;;20.85;59.45;101183.75;5079523;27;45598;-51
2021/07/15 01:39:13;;;;;;;;;12.00;12.00;;;;;20.84;59.10;101179.31;5076184;27;47303;-51
2021/07/15 01:41:44;;;;;;;;;15.75;15.50;;;;;20.83;59.17;101182.97;5079715;27;45829;-46
2021/07/15 01:44:20;;;;;;;;;11.50;11.50;;;;;20.79;59.02;101178.69;5079429;27;45468;-48
2021/07/15 01:46:48;;;;;;;;;13.00;13.00;;;;;20.79;59.59;101184.06;5074864;28;45523;-50
2021/07/15 01:49:14;;;;;;;;;15.75;14.00;;;;;20.79;59.78;101185.91;5077040;27;46985;-53
2021/07/15 01:51:40;;;;;;;;;15.25;13.25;;;;;20.80;59.41;101182.25;5079784;28;45762;-47
2021/07/15 01:54:08;;;;;;;;;12.50;12.50;;;;;20.79;59.37;101189.47;5078102;27;45257;-48
2021/07/15 01:56:38;;;;;;;;;13.75;13.75;;;;;20.79;59.27;101189.47;5060743;27;45675;-49
2021/07/15 01:59:12;;;;;;;;;14.25;14.25;;;;;20.77;59.59;101188.69;5078552;27;48126;-48
2021/07/15 02:01:39;;;;;;;;;15.00;15.00;;;;;20.76;59.35;101180.69;5070518;27;46084;-49
2021/07/15 02:04:07;;;;;;;;;19.00;16.00;;;;;20.75;59.53;101169.03;5078724;28;45219;-48
2021/07/15 02:06:35;;;;;;;;;16.25;16.25;;;;;20.73;59.53;101179.06;5060589;28;45655;-48
2021/07/15 02:09:04;;;;;;;;;16.00;14.00;;;;;20.69;59.55;101174.75;5060200;28;46594;-48
2021/07/15 02:11:33;;;;;;;;;16.00;14.00;;;;;20.68;59.74;101186.50;5061934;27;45406;-50
2021/07/15 02:14:04;;;;;;;;;15.50;14.75;;;;;20.68;59.60;101185.63;5079956;27;45441;-49
2021/07/15 02:16:36;;;;;;;;;16.00;13.75;;;;;20.67;59.84;101176.69;5078573;28;45524;-49
2021/07/15 02:19:03;;;;;;;;;15.75;15.75;;;;;20.67;59.69;101192.00;5061497;28;47456;-50
2021/07/15 02:21:31;;;;;;;;;15.25;12.50;;;;;20.65;59.71;101183.13;5081583;27;45932;-51
2021/07/15 02:23:59;;;;;;;;;16.25;16.25;;;;;20.63;59.98;101179.66;5085670;27;45396;-48
2021/07/15 02:26:26;;;;;;;;;12.75;12.75;;;;;20.61;60.19;101195.03;5062218;27;45372;-48
2021/07/15 02:28:53;;;;;;;;;11.50;11.50;;;;;20.58;59.82;101177.19;5063352;27;47404;-50
2021/07/15 02:31:29;;;;;;;;;14.00;13.75;;;;;20.58;60.09;101185.28;5063993;28;45350;-48
2021/07/15 02:33:59;;;;;;;;;15.50;14.50;;;;;20.56;60.16;101171.88;5082669;27;45406;-49
2021/07/15 02:36:30;;;;;;;;;13.25;13.00;;;;;20.54;60.55;101171.09;5075345;27;45330;-51
2021/07/15 02:38:58;;;;;;;;;17.00;14.75;;;;;20.53;60.05;101174.75;5076014;27;46075;-48
2021/07/15 02:41:24;;;;;;;;;15.00;14.25;;;;;20.55;60.17;101169.28;5081435;27;45536;-48
2021/07/15 02:43:49;;;;;;;;;15.25;14.00;;;;;20.54;60.55;101171.09;5063039;27;45495;-50
2021/07/15 02:46:15;;;;;;;;;14.00;13.50;;;;;20.55;60.09;101169.28;5077896;27;45515;-49
2021/07/15 02:48:41;;;;;;;;;15.50;14.25;;;;;20.57;60.23;101157.44;5063239;27;47355;-48
2021/07/15 02:51:07;;;;;;;;;13.25;13.25;;;;;20.56;60.62;101149.44;5081702;27;45365;-50
2021/07/15 02:53:33;;;;;;;;;18.75;17.25;;;;;20.57;60.22;101157.44;5063295;27;45291;-50
2021/07/15 02:56:26;;;;;;;;;16.75;16.75;;;;;20.57;60.64;101165.53;5081546;27;45637;-50
2021/07/15 02:59:19;;;;;;;;;13.25;13.25;;;;;20.54;60.28;101152.22;5053030;27;45278;-52
2021/07/15 03:02:01;;;;;;;;;12.25;12.00;;;;;20.54;60.27;101159.44;5073367;27;46155;-50
2021/07/15 03:04:35;;;;;;;;;16.00;13.00;;;;;20.53;60.28;101160.41;5082804;27;45362;-51
2021/07/15 03:07:07;;;;;;;;;15.50;14.50;;;;;20.53;60.90;101155.88;5081333;27;45594;-50
2021/07/15 03:09:34;;;;;;;;;17.50;16.50;;;;;20.52;60.50;101154.16;5080831;27;47850;-49
2021/07/15 03:12:11;;;;;;;;;12.67;11.33;;;;;20.50;60.62;101161.47;5059644;28;45434;-50
2021/07/15 03:14:39;;;;;;;;;14.50;13.75;;;;;20.48;60.64;101152.59;5058368;27;45465;-49
2021/07/15 03:17:11;;;;;;;;;11.75;11.75;;;;;20.46;60.96;101154.50;5081097;27;45577;-48
2021/07/15 03:19:40;;;;;;;;;12.00;11.00;;;;;20.46;60.47;101156.34;5080945;27;47040;-48
2021/07/15 03:22:07;;;;;;;;;11.00;10.25;;;;;20.43;60.72;101162.75;5062958;28;46425;-52
2021/07/15 03:24:38;;;;;;;;;15.50;15.00;;;;;20.44;60.86;101155.53;5081257;27;45378;-51
2021/07/15 03:27:05;;;;;;;;;13.75;13.50;;;;;20.46;61.08;101156.34;5081106;27;45403;-51
2021/07/15 03:29:36;;;;;;;;;12.50;11.75;;;;;20.46;61.12;101154.50;5080448;27;47464;-52
2021/07/15 03:32:05;;;;;;;;;13.50;13.50;;;;;20.47;60.72;101161.63;5080871;27;45643;-52
2021/07/15 03:34:36;;;;;;;;;14.75;13.50;;;;;20.47;61.03;101168.84;5062818;28;45473;-51
2021/07/15 03:37:02;;;;;;;;;14.50;13.75;;;;;20.48;61.15;101165.19;5062531;28;45414;-52
2021/07/15 03:39:29;;;;;;;;;13.50;13.50;;;;;20.47;61.00;101166.16;5078803;27;46280;-48
2021/07/15 03:41:55;;;;;;;;;17.00;15.75;;;;;20.45;60.66;101163.53;5063543;27;45524;-49
2021/07/15 03:44:22;;;;;;;;;13.75;13.75;;;;;20.46;60.69;101161.72;5082107;27;45468;-46
2021/07/15 03:46:48;;;;;;;;;18.25;17.75;;;;;20.47;61.04;101163.47;5059511;28;45475;-49
2021/07/15 03:49:19;;;;;;;;;14.00;12.75;;;;;20.49;61.30;101161.56;5079446;27;48459;-50
2021/07/15 03:51:45;;;;;;;;;15.75;14.00;;;;;20.50;60.83;101156.06;5088991;27;45335;-49
2021/07/15 03:54:13;;;;;;;;;13.25;13.00;;;;;20.51;61.20;101157.81;5080378;27;45696;-46
2021/07/15 03:56:41;;;;;;;;;13.50;12.00;;;;;20.53;61.29;101160.41;5062294;27;45641;-50
2021/07/15 03:59:07;;;;;;;;;16.75;13.50;;;;;20.53;60.93;101160.41;5080950;27;47592;-46
2021/07/15 04:01:34;;;;;;;;;17.00;15.25;;;;;20.53;60.93;101163.09;5063775;27;45948;-48
2021/07/15 04:04:01;;;;;;;;;17.25;16.50;;;;;20.51;61.25;101157.81;5080852;27;45411;-47
2021/07/15 04:06:28;;;;;;;;;15.75;15.75;;;;;20.50;60.75;101168.69;5080677;27;45506;-46
2021/07/15 04:08:54;;;;;;;;;15.00;13.00;;;;;20.48;61.17;101168.75;5080018;27;46311;-49
2021/07/15 04:11:22;;;;;;;;;14.00;14.00;;;;;20.48;61.20;101168.75;5061896;27;45323;-47
2021/07/15 04:13:48;;;;;;;;;13.50;13.50;;;;;20.48;60.88;101167.91;5080287;27;45236;-48
2021/07/15 04:16:16;;;;;;;;;13.00;13.00;;;;;20.49;60.94;101172.34;5080423;27;45602;-48
2021/07/15 04:18:44;;;;;;;;;14.25;14.25;;;;;20.51;61.51;101167.72;5079738;27;46030;-50
2021/07/15 04:21:12;;;;;;;;;15.75;14.75;;;;;20.53;61.32;101176.59;5079860;27;45335;-46
2021/07/15 04:23:40;;;;;;;;;19.00;17.00;;;;;20.55;61.17;101170.16;5079882;27;45415;-48
2021/07/15 04:26:06;;;;;;;;;16.00;15.25;;;;;20.57;61.09;101179.00;5061899;27;45524;-49
2021/07/15 04:28:32;;;;;;;;;14.25;14.25;;;;;20.60;61.02;101186.09;5061521;28;47597;-51
2021/07/15 04:31:11;;;;;;;;;13.25;13.25;;;;;20.58;61.36;101179.88;5079440;27;45593;-50
2021/07/15 04:33:38;;;;;;;;;16.25;13.00;;;;;20.60;61.51;101182.53;5080519;27;45365;-48
2021/07/15 04:36:06;;;;;;;;;14.75;14.00;;;;;20.63;61.11;101185.91;5062634;28;46416;-49
2021/07/15 04:38:32;;;;;;;;;12.50;11.50;;;;;20.64;60.93;101176.84;5058224;28;45472;-51
2021/07/15 04:40:58;;;;;;;;;16.00;16.00;;;;;20.63;61.27;101188.59;5080965;27;46315;-48
2021/07/15 04:43:24;;;;;;;;;17.25;15.00;;;;;20.65;61.15;101181.28;5088544;27;45357;-48
2021/07/15 04:45:53;;;;;;;;;17.00;17.00;;;;;20.66;60.85;101198.34;5087568;27;45494;-48
2021/07/15 04:48:19;;;;;;;;;12.50;12.00;;;;;20.67;60.88;101192.88;5077563;28;48479;-51
2021/07/15 04:50:45;;;;;;;;;14.25;14.00;;;;;20.69;61.22;101190.06;5079402;27;45768;-49
2021/07/15 04:53:16;;;;;;;;;13.00;13.00;;;;;20.68;61.24;101189.22;5079604;27;45659;-48
2021/07/15 04:55:43;;;;;;;;;13.50;13.50;;;;;20.68;60.59;101191.03;5079386;27;45539;-47
2021/07/15 04:58:10;;;;;;;;;13.25;13.25;;;;;20.68;61.11;101191.91;5080854;27;45630;-51
2021/07/15 05:00:37;;;;;;;;;15.00;15.00;;;;;20.68;60.53;101193.72;5075741;27;45507;-49
2021/07/15 05:03:21;;;;;;;;;15.00;14.75;;;;;20.67;60.79;101189.28;5057813;28;45679;-46
2021/07/15 05:05:46;;;;;;;;;12.33;12.33;;;;;20.67;61.20;101194.69;5058144;28;45785;-49
2021/07/15 05:08:12;;;;;;;;;17.00;15.25;;;;;20.68;61.04;101201.81;5058057;28;47094;-48
2021/07/15 05:10:37;;;;;;;;;16.33;16.33;;;;;20.69;60.88;101193.63;5058887;28;45687;-47
2021/07/15 05:13:03;;;;;;;;;16.67;15.00;;;;;20.71;60.81;101186.38;5058182;28;45445;-51
2021/07/15 05:15:28;;;;;;;;;15.00;15.00;;;;;20.71;60.85;101189.06;5041292;28;45355;-48
2021/07/15 05:17:55;;;;;;;;;15.67;15.00;;;;;20.72;61.31;101185.41;5040810;28;45500;-48
2021/07/15 05:20:20;;;;;;;;;19.00;19.00;;;;;20.74;60.99;101196.09;5040810;28;45984;-48
2021/07/15 05:22:46;;;;;;;;;18.00;16.25;;;;;20.74;60.87;101198.78;5040657;28;45274;-48
2021/07/15 05:25:12;;;;;;;;;20.75;19.00;;;;;20.75;60.84;101201.41;5041090;28;45314;-48
2021/07/15 05:27:38;;;;;;;;;15.50;15.50;;;;;20.78;61.12;101195.81;5058729;28;47506;-50
2021/07/15 05:30:05;;;;;;;;;16.50;15.00;;;;;20.81;60.45;101201.03;5058799;28;45434;-48
2021/07/15 05:32:32;;;;;;;;;36.75;32.75;;;;;20.84;60.38;101197.31;5072776;28;45357;-52
2021/07/15 05:34:57;;;;;;;;;17.75;17.75;;;;;20.88;60.33;101204.28;5079552;28;45481;-47
2021/07/15 05:37:23;;;;;;;;;20.50;17.25;;;;;20.92;61.11;101207.66;5077110;28;48359;-46
2021/07/15 05:39:48;;;;;;;;;18.00;17.00;;;;;20.94;60.64;101205.75;5041323;28;45382;-49
2021/07/15 05:42:14;;;;;;;;;29.75;28.25;;;;;20.97;60.69;101203.75;5041029;28;45353;-50
2021/07/15 05:44:40;;;;;;;;;22.75;18.75;;;;;21.00;60.76;101214.38;5041129;28;45332;-47
2021/07/15 05:47:08;;;;;;;;;15.50;14.50;;;;;21.04;60.87;101206.97;5060567;27;47460;-50
2021/07/15 05:49:35;;;;;;;;;16.75;14.50;;;;;21.06;60.55;101211.31;5061116;27;45526;-50
2021/07/15 05:52:01;;;;;;;;;10.50;10.50;;;;;21.08;59.80;101213.91;5058627;28;45370;-48
2021/07/15 05:54:27;;;;;;;;;16.75;16.75;;;;;21.08;60.02;101220.19;5079021;27;45519;-50
2021/07/15 05:56:52;;;;;;;;;15.00;15.00;;;;;21.11;59.99;101216.47;5060489;28;47634;-49
2021/07/15 05:59:18;;;;;;;;;12.50;12.00;;;;;21.11;60.11;101214.63;5078746;27;45262;-49
2021/07/15 06:01:43;;;;;;;;;14.00;14.00;;;;;21.16;60.22;101222.44;5078783;27;45385;-48
2021/07/15 06:04:08;;;;;;;;;13.25;13.25;;;;;21.20;59.59;101221.31;5082303;27;45369;-49
2021/07/15 06:06:34;;;;;;;;;12.00;10.50;;;;;21.24;59.87;101212.09;5063870;28;46154;-50
2021/07/15 06:08:59;;;;;;;;;13.75;13.00;;;;;21.28;59.67;101210.97;5081918;27;45316;-50
2021/07/15 06:11:25;;;;;;;;;10.00;10.00;;;;;21.31;59.14;101208.09;5084416;27;45553;-49
2021/07/15 06:13:50;;;;;;;;;15.25;13.25;;;;;21.35;59.32;101214.19;5064093;27;45315;-48
2021/07/15 06:16:16;;;;;;;;;11.00;10.00;;;;;21.40;59.62;101217.50;5081943;27;45981;-49
2021/07/15 06:18:41;;;;;;;;;12.67;12.67;;;;;21.45;59.48;101215.38;5081920;27;45347;-48
2021/07/15 06:21:07;;;;;;;;;13.75;13.25;;;;;21.51;58.96;101223.13;5082338;27;45783;-50
2021/07/15 06:23:33;;;;;;;;;8.50;8.50;;;;;21.57;59.15;101224.59;5082285;27;45440;-48
2021/07/15 06:25:59;;;;;;;;;14.00;13.00;;;;;21.61;58.92;101220.75;5060600;28;46104;-52
2021/07/15 06:28:26;;;;;;;;;12.75;11.75;;;;;21.65;58.62;101231.28;5063462;28;45385;-49
2021/07/15 06:30:51;;;;;;;;;13.00;12.25;;;;;21.69;58.88;101219.31;5082975;27;45423;-48
2021/07/15 06:33:17;;;;;;;;;13.00;13.00;;;;;21.73;58.62;101226.31;5064976;28;45317;-51
2021/07/15 06:35:47;;;;;;;;;12.75;11.25;;;;;21.76;58.79;101236.03;5082459;27;47082;-50
2021/07/15 06:38:13;;;;;;;;;15.00;15.00;;;;;21.80;58.67;101223.22;5081863;27;45717;-51
2021/07/15 06:40:38;;;;;;;;;11.75;11.75;;;;;21.82;58.21;101241.06;5063525;27;45667;-51
2021/07/15 06:43:04;;;;;;;;;11.75;11.75;;;;;21.83;58.33;101242.81;5082112;27;45461;-52
2021/07/15 06:45:29;;;;;;;;;12.00;10.75;;;;;21.82;58.41;101242.91;5077878;27;46452;-51
2021/07/15 06:47:55;;;;;;;;;11.75;11.75;;;;;21.84;58.07;101246.38;5060219;28;45664;-49
2021/07/15 06:50:20;;;;;;;;;11.50;10.50;;;;;21.85;57.73;101240.00;5059067;27;45348;-49
2021/07/15 06:52:46;;;;;;;;;10.50;9.75;;;;;21.84;57.42;101243.66;5063527;28;45338;-49
2021/07/15 06:55:12;;;;;;;;;12.75;12.75;;;;;21.85;57.57;101238.19;5081273;27;46174;-50
2021/07/15 06:57:38;;;;;;;;;12.50;12.50;;;;;21.84;57.50;101230.16;5081543;27;46255;-48
2021/07/15 07:00:11;;;;;;;;;16.25;13.25;;;;;21.87;57.84;101228.16;5063857;27;45384;-47
2021/07/15 07:02:38;;;;;;;;;10.75;10.75;;;;;21.90;57.63;101232.50;5073591;27;45361;-49
2021/07/15 07:05:05;;;;;;;;;10.50;10.50;;;;;21.95;57.89;101235.78;5081346;27;45402;-50
2021/07/15 07:07:30;;;;;;;;;11.00;11.00;;;;;22.01;57.63;101227.31;5081279;27;45286;-49
2021/07/15 07:09:56;;;;;;;;;14.00;12.00;;;;;22.08;57.60;101219.72;5063173;27;45493;-52
2021/07/15 07:12:21;;;;;;;;;15.25;13.25;;;;;22.16;57.94;101231.81;5081048;27;45604;-49
2021/07/15 07:14:47;;;;;;;;;12.75;12.75;;;;;22.21;57.30;101234.22;5081027;27;48150;-50
2021/07/15 07:17:12;;;;;;;;;11.25;10.50;;;;;22.24;57.12;101229.50;5081466;27;45409;-50
2021/07/15 07:19:38;;;;;;;;;13.25;11.75;;;;;22.26;57.49;101230.28;5081217;27;45301;-51
2021/07/15 07:22:03;;;;;;;;;9.50;9.50;;;;;22.30;56.95;101245.34;5081640;27;45204;-46
2021/07/15 07:24:29;;;;;;;;;12.25;10.50;;;;;22.35;56.90;101236.94;5062819;28;47844;-50
2021/07/15 07:26:54;;;;;;;;;14.50;14.50;;;;;22.36;57.08;101240.50;5059245;28;45951;-51
2021/07/15 07:29:20;;;;;;;;;15.25;11.25;;;;;22.38;56.66;101239.47;5060683;28;45433;-49
2021/07/15 07:31:45;;;;;;;;;11.50;10.00;;;;;22.42;57.10;101238.28;5081262;27;45583;-51
2021/07/15 07:34:11;;;;;;;;;11.00;11.00;;;;;22.46;57.26;101230.84;5081021;27;45424;-48
2021/07/15 07:36:37;;;;;;;;;11.75;10.50;;;;;22.50;56.81;101225.16;5059373;28;45991;-49
2021/07/15 07:39:03;;;;;;;;;11.00;10.75;;;;;22.54;56.62;101228.53;5074930;27;45393;-47
2021/07/15 07:41:29;;;;;;;;;12.00;11.75;;;;;22.56;56.70;101232.00;5081337;27;45988;-48
2021/07/15 07:43:55;;;;;;;;;10.50;10.50;;;;;22.58;56.88;101235.47;5082045;27;47738;-51
2021/07/15 07:46:20;;;;;;;;;10.75;10.00;;;;;22.61;56.32;101235.28;5058758;28;45255;-47
2021/07/15 07:48:46;;;;;;;;;15.00;13.50;;;;;22.60;56.27;101237.13;5077566;27;45650;-48
2021/07/15 07:51:13;;;;;;;;;14.75;14.75;;;;;22.61;56.76;101233.47;5062915;28;45639;-47
2021/07/15 07:53:38;;;;;;;;;13.33;13.33;;;;;22.66;56.36;101232.31;5062704;27;45747;-51
2021/07/15 07:56:04;;;;;;;;;15.50;15.00;;;;;22.70;56.55;101223.88;5062479;28;45727;-48
2021/07/15 07:58:30;;;;;;;;;14.00;14.00;;;;;22.76;56.53;101226.22;5080758;27;45433;-52
2021/07/15 08:00:55;;;;;;;;;13.00;13.00;;;;;22.83;56.62;101219.44;5076503;27;45585;-49
2021/07/15 08:03:21;;;;;;;;;12.00;12.00;;;;;22.89;56.12;101219.06;5058285;28;47809;-47
2021/07/15 08:05:47;;;;;;;;;12.67;12.67;;;;;22.97;55.78;101221.25;5042222;28;45367;-51
2021/07/15 08:08:18;;;;;;;;;11.00;11.00;;;;;23.00;55.84;101215.66;5077166;27;45462;-47
2021/07/15 08:10:43;;;;;;;;;12.67;11.00;;;;;23.05;55.78;101220.75;5062328;28;45272;-49
2021/07/15 08:13:09;;;;;;;;;12.00;10.67;;;;;23.07;55.81;101222.38;5062138;27;46860;-49
2021/07/15 08:15:35;;;;;;;;;10.67;9.67;;;;;;;;5080145;27;45406;-48
2021/07/15 08:18:01;;;;;;;;;11.00;11.00;;;;;;;;5080156;27;45327;-50
2021/07/15 08:20:27;;;;;;;;;8.00;8.00;;;;;23.07;55.36;101218.81;5080555;27;45384;-48
2021/07/15 08:22:53;;;;;;;;;8.00;8.00;;;;;23.07;55.26;101214.28;5061362;28;46998;-49
2021/07/15 08:25:22;;;;;;;;;11.75;11.75;;;;;;;;5080479;27;45310;-51
2021/07/15 08:27:49;;;;;;;;;10.50;10.50;;;;;23.05;55.20;101216.22;5080259;27;45293;-50
2021/07/15 08:30:16;;;;;;;;;10.67;10.67;;;;;23.03;54.99;101220.00;5080227;27;45683;-51
2021/07/15 08:32:42;;;;;;;;;11.00;11.00;;;;;23.01;54.99;101217.41;5060940;27;48189;-49
2021/07/15 08:35:08;;;;;;;;;10.25;9.50;;;;;22.99;55.07;101213.91;5079815;27;45337;-50
2021/07/15 08:37:34;;;;;;;;;11.75;11.50;;;;;22.99;55.48;101207.63;5059375;27;45375;-47
2021/07/15 08:40:00;;;;;;;;;9.75;9.75;;;;;22.97;54.96;101215.84;5080468;27;45357;-49
2021/07/15 08:42:26;;;;;;;;;13.00;13.00;;;;;22.96;55.29;101205.13;5079576;27;47599;-49
2021/07/15 08:44:53;;;;;;;;;8.00;7.67;;;;;22.93;55.13;101206.19;5078722;27;45279;-51
2021/07/15 08:47:20;;;;;;;;;11.00;11.00;;;;;22.94;55.28;101209.75;5076866;27;45702;-48
2021/07/15 08:49:45;;;;;;;;;14.75;11.75;;;;;22.93;54.78;101208.91;5080066;27;45437;-52
2021/07/15 08:52:15;;;;;;;;;9.75;9.75;;;;;22.94;55.12;101207.06;5079575;27;47310;-51
2021/07/15 08:57:25;;;;;;;;;12.00;11.25;;;;;22.95;54.98;101203.38;5081162;27;45589;-51
2021/07/15 08:59:51;;;;;;;;;12.00;10.50;;;;;22.95;55.01;101201.53;5064796;28;45370;-50
2021/07/15 09:02:22;;;;;;;;;14.50;14.50;;;;;22.96;54.53;101205.13;5063693;28;47273;-48
2021/07/15 09:04:49;;;;;;;;;13.50;13.50;;;;;22.98;54.90;101209.44;5061747;28;45477;-52
2021/07/15 09:07:15;;;;;;;;;13.00;10.25;;;;;23.00;54.67;101215.66;5061606;28;45335;-47
2021/07/15 09:09:45;;;;;;;;;11.75;11.75;;;;;23.00;54.60;101204.84;5080000;27;45312;-49
2021/07/15 09:12:11;;;;;;;;;11.25;11.25;;;;;23.04;54.17;101214.47;5079503;27;48203;-52
2021/07/15 09:14:48;;;;;;;;;12.75;12.75;;;;;23.09;54.51;101222.28;5079923;28;45573;-48
2021/07/15 09:17:15;;;;;;;;;13.00;11.50;;;;;23.17;54.15;101211.84;5080136;27;45618;-50
2021/07/15 09:19:42;;;;;;;;;11.50;10.75;;;;;23.23;54.26;101214.13;5061520;28;45303;-48
2021/07/15 09:22:13;;;;;;;;;11.50;11.00;;;;;23.30;54.40;101212.75;5079447;27;45397;-46
2021/07/15 09:24:46;;;;;;;;;12.00;11.25;;;;;23.36;54.20;101216.88;5079167;27;45353;-47
2021/07/15 09:27:16;;;;;;;;;10.67;10.67;;;;;23.40;54.15;101207.59;5064009;27;45354;-47
2021/07/15 09:29:43;;;;;;;;;9.67;9.67;;;;;23.45;53.59;101216.25;5046965;27;45864;-47
2021/07/15 09:32:17;;;;;;;;;10.75;10.75;;;;;23.49;53.69;101215.06;5085017;27;47155;-53
2021/07/15 09:34:43;;;;;;;;;11.25;10.75;;;;;23.54;53.43;101215.66;5076877;27;45248;-48
2021/07/15 09:37:16;;;;;;;;;10.00;10.00;;;;;23.60;53.73;101217.94;5082306;27;45391;-51
2021/07/15 09:39:45;;;;;;;;;11.00;11.00;;;;;23.69;53.33;101222.75;5059338;28;45380;-52
2021/07/15 09:42:15;;;;;;;;;11.00;11.00;;;;;23.77;52.64;101217.69;5056990;28;47252;-49
2021/07/15 09:44:43;;;;;;;;;11.00;9.00;;;;;23.86;52.96;101221.59;5060360;27;45410;-49
2021/07/15 09:47:47;;;;;;;;;8.67;8.67;;;;;23.99;52.99;101224.31;5056782;28;45759;-50
2021/07/15 09:50:15;;;;;;;;;7.25;7.25;;;;;24.09;52.75;101228.13;5057834;27;45349;-48
2021/07/15 09:52:41;;;;;;;;;11.00;11.00;;;;;24.13;52.65;101232.34;5058035;28;46996;-50
2021/07/15 09:55:26;;;;;;;;;12.75;11.00;;;;;24.21;52.45;101221.84;5058742;28;45422;-50
2021/07/15 09:58:07;;;;;;;;;10.25;9.25;;;;;24.30;52.08;101236.63;5037456;28;45628;-48
2021/07/15 10:00:37;;;;;;;;;10.00;10.00;;;;;24.34;51.96;101239.00;5055855;28;45349;-49
2021/07/15 10:03:04;;;;;;;;;12.67;11.00;;;;;24.38;51.57;101227.94;5053267;28;45332;-47
2021/07/15 10:05:31;;;;;;;;;10.33;10.33;;;;;24.41;51.56;101228.59;5058460;28;46350;-46
2021/07/15 10:08:03;;;;;;;;;10.67;10.67;;;;;24.47;51.55;101233.56;5058652;28;45418;-51
2021/07/15 10:10:29;;;;;;;;;11.00;10.00;;;;;24.52;51.43;101230.50;5056249;28;45596;-50
2021/07/15 10:12:55;;;;;;;;;11.33;11.33;;;;;24.56;51.36;101230.22;5053043;28;46210;-49
2021/07/15 10:15:21;;;;;;;;;11.75;10.75;;;;;24.62;51.34;101227.03;5059743;28;45401;-48
2021/07/15 10:17:48;;;;;;;;;10.25;9.50;;;;;24.70;51.31;101229.22;5058712;28;45323;-47
2021/07/15 10:20:19;;;;;;;;;10.50;10.00;;;;;24.77;51.45;101233.19;5057982;28;45647;-51
2021/07/15 10:22:53;;;;;;;;;10.00;9.67;;;;;24.82;51.06;101233.75;5056197;28;46795;-47
2021/07/15 10:25:19;;;;;;;;;11.33;11.33;;;;;24.85;51.11;101241.66;5058250;28;45450;-48
2021/07/15 10:27:46;;;;;;;;;10.33;10.33;;;;;24.86;50.98;101243.38;5056564;28;45348;-48
2021/07/15 10:30:14;;;;;;;;;10.00;10.00;;;;;24.84;50.47;101234.50;5058800;28;45563;-48
2021/07/15 10:32:41;;;;;;;;;9.67;9.00;;;;;24.84;50.38;101241.78;5056694;28;45556;-50
2021/07/15 10:35:09;;;;;;;;;12.00;11.00;;;;;24.84;50.48;101245.34;5058178;28;45365;-49
2021/07/15 10:37:41;;;;;;;;;8.00;8.00;;;;;24.85;50.42;101235.34;5055767;28;45368;-48
2021/07/15 10:40:09;;;;;;;;;9.25;8.50;;;;;24.89;50.23;101237.72;5053251;28;45357;-47
2021/07/15 10:42:36;;;;;;;;;12.67;11.00;;;;;24.92;50.13;101240.22;5030747;27;45791;-48
2021/07/15 10:45:02;;;;;;;;;11.25;11.00;;;;;24.97;50.11;101249.88;5076078;27;45323;-47
2021/07/15 10:47:28;;;;;;;;;10.50;10.50;;;;;24.98;50.24;101255.19;5046522;27;45395;-50
2021/07/15 10:49:58;;;;;;;;;10.00;10.00;;;;;24.98;49.94;101238.91;5081922;27;45592;-51
2021/07/15 10:52:25;;;;;;;;;12.00;12.00;;;;;25.00;50.27;101247.81;5046547;28;47762;-49
2021/07/15 10:54:52;;;;;;;;;10.25;9.75;;;;;25.03;50.25;101234.06;5081160;27;45925;-52
2021/07/15 10:57:23;;;;;;;;;10.50;10.50;;;;;25.06;50.09;101244.69;5063142;28;45397;-52
2021/07/15 10:59:50;;;;;;;;;10.75;10.75;;;;;25.08;50.39;101247.28;5063654;27;45340;-50
2021/07/15 11:02:26;;;;;;;;;21.25;20.25;;;;;25.11;49.67;101250.63;5055221;28;48005;-52
2021/07/15 11:04:53;;;;;;;;;33.50;30.75;;;;;25.13;50.17;101247.78;5081240;27;45698;-48
2021/07/15 11:07:34;;;;;;;;;31.25;29.75;;;;;25.16;49.70;101248.47;5081206;27;45227;-51
2021/07/15 11:10:13;;;;;;;;;18.00;16.00;;;;;25.18;49.54;101249.19;5081669;27;45550;-48
2021/07/15 11:12:38;;;;;;;;;11.25;10.25;;;;;25.23;49.59;101243.41;5080746;27;45398;-52
2021/07/15 11:15:08;;;;;;;;;11.00;11.00;;;;;25.31;50.09;101243.72;5081157;27;45344;-47
2021/07/15 11:17:48;;;;;;;;;9.00;9.00;;;;;25.40;49.83;101245.72;5081015;27;45294;-51
2021/07/15 11:20:34;;;;;;;;;8.50;8.00;;;;;25.42;49.21;101246.50;5063167;28;45459;-49